Messwerte Reading

Temperatur

Temperatur
°C
1594432800 22.00 22.00
1594436400 23.00 23.00 23
1594440000 0.00 0.00 23
1594443600 1.00 1.00 23
1594447200 2.00 2.00 23
1594450800 3.00 3.00 22
1594454400 4.00 4.00 22
1594458000 5.00 5.00 22
1594461600 6.00 6.00 21
1594465200 7.00 7.00 23
1594468800 8.00 8.00 24
1594472400 9.00 9.00 25
1594476000 10.00 10.00
1594479600 11.00 11.00 27
1594483200 12.00 12.00 28
1594486800 13.00 13.00 29
1594490400 14.00 14.00 31
1594494000 15.00 15.00 32
1594497600 16.00 16.00 31
1594501200 17.00 17.00
1594504800 18.00 18.00 31
1594508400 19.00 19.00 29
1594512000 20.00 20.00 28
1594515600 21.00 21.00 27

Aktuellste Messwerte

Wettercharakter
Wetter: meist klar
Temperatur
24 °C
Feuchtigkeit
70 %
Wind
10 km/hWindrichtung: Südwest
Luftdruck
1007 hPa
Messzeit: 11. Juli 2020, 23.00Datenquelle: METAR

Weitere Messstationen in der Nähe

Messstation Temperatur Entfernung
Pottstown 24 °C 38 km
Lancaster 24 °C 40 km
Quakertown 24 °C 50 km
Muir Army Air Field / Indiantown 23 °C 51 km
Allentown 23 °C 55 km
Philadelphia 25 °C 65 km
Harrisburg 25 °C 72 km

Wind

Windrichtung Böen Mittelwind
° km/h km/h
1594432800 22.00 21.00 - 22.00
1594436400 23.00 22.00 - 23.00 280° 20
1594440000 0.00 23.00 - 0.00 250° 15
1594443600 1.00 0.00 - 1.00 220° 10
1594447200 2.00 1.00 - 2.00 200° 5
1594450800 3.00 2.00 - 3.00 0
1594454400 4.00 3.00 - 4.00 220° 5
1594458000 5.00 4.00 - 5.00 0
1594461600 6.00 5.00 - 6.00 0
1594465200 7.00 6.00 - 7.00 0
1594468800 8.00 7.00 - 8.00 190° 5
1594472400 9.00 8.00 - 9.00 230° 5
1594476000 10.00 9.00 - 10.00
1594479600 11.00 10.00 - 11.00 270° 10
1594483200 12.00 11.00 - 12.00 210° 15
1594486800 13.00 12.00 - 13.00 270° 15
1594490400 14.00 13.00 - 14.00 180° 25 20
1594494000 15.00 14.00 - 15.00 210° 25
1594497600 16.00 15.00 - 16.00 210° 20
1594501200 17.00 16.00 - 17.00
1594504800 18.00 17.00 - 18.00 260° 20
1594508400 19.00 18.00 - 19.00 270° 15
1594512000 20.00 19.00 - 20.00 260° 20
1594515600 21.00 20.00 - 21.00 260° 40 20

Ihre Wetterstation

Fehlt Ihre Wetterstation auf unserem Portal?

Schreiben Sie an network@meteonews.ch

Klima

Wann ist es am wärmsten? Wann regnet es am wenigsten? Unsere Klimadaten geben Auskunft.